sensor_id;sensor_type;location;lat;lon;timestamp;pressure;altitude;pressure_sealevel;temperature;humidity
48888;BME280;42598;53.802;-1.632;2023-02-03T00:00:50;101258.17;;;7.35;100.00
48888;BME280;42598;53.802;-1.632;2023-02-03T00:03:18;101264.74;;;7.13;100.00
48888;BME280;42598;53.802;-1.632;2023-02-03T00:05:45;101273.20;;;6.68;100.00
48888;BME280;42598;53.802;-1.632;2023-02-03T00:08:13;101284.82;;;6.39;100.00
48888;BME280;42598;53.802;-1.632;2023-02-03T00:10:43;101303.43;;;6.85;100.00
48888;BME280;42598;53.802;-1.632;2023-02-03T00:13:10;101294.22;;;6.49;100.00
48888;BME280;42598;53.802;-1.632;2023-02-03T00:15:38;101298.76;;;6.93;100.00
48888;BME280;42598;53.802;-1.632;2023-02-03T00:18:05;101291.07;;;7.31;100.00
48888;BME280;42598;53.802;-1.632;2023-02-03T00:20:33;101317.60;;;6.80;100.00
48888;BME280;42598;53.802;-1.632;2023-02-03T00:23:04;101317.08;;;6.60;100.00
48888;BME280;42598;53.802;-1.632;2023-02-03T00:25:33;101311.65;;;6.63;100.00
48888;BME280;42598;53.802;-1.632;2023-02-03T00:28:00;101315.03;;;6.62;100.00
48888;BME280;42598;53.802;-1.632;2023-02-03T00:30:28;101314.81;;;6.74;100.00
48888;BME280;42598;53.802;-1.632;2023-02-03T00:32:54;101314.98;;;6.54;100.00
48888;BME280;42598;53.802;-1.632;2023-02-03T00:35:22;101325.09;;;6.39;100.00
48888;BME280;42598;53.802;-1.632;2023-02-03T00:37:51;101332.93;;;7.28;100.00
48888;BME280;42598;53.802;-1.632;2023-02-03T00:40:20;101328.63;;;7.06;100.00
48888;BME280;42598;53.802;-1.632;2023-02-03T00:42:48;101333.32;;;7.16;100.00
48888;BME280;42598;53.802;-1.632;2023-02-03T00:45:15;101331.39;;;7.35;100.00
48888;BME280;42598;53.802;-1.632;2023-02-03T00:47:42;101329.92;;;7.74;100.00
48888;BME280;42598;53.802;-1.632;2023-02-03T00:50:10;101337.10;;;7.58;100.00
48888;BME280;42598;53.802;-1.632;2023-02-03T00:52:37;101323.84;;;7.35;100.00
48888;BME280;42598;53.802;-1.632;2023-02-03T00:55:05;101310.15;;;7.31;100.00
48888;BME280;42598;53.802;-1.632;2023-02-03T00:57:32;101319.96;;;6.66;100.00
48888;BME280;42598;53.802;-1.632;2023-02-03T00:59:59;101326.67;;;7.43;100.00
48888;BME280;42598;53.802;-1.632;2023-02-03T01:02:26;101318.00;;;7.24;100.00
48888;BME280;42598;53.802;-1.632;2023-02-03T01:04:53;101318.00;;;7.18;100.00
48888;BME280;42598;53.802;-1.632;2023-02-03T01:07:25;101317.04;;;6.95;100.00
48888;BME280;42598;53.802;-1.632;2023-02-03T01:09:52;101304.78;;;7.46;100.00
48888;BME280;42598;53.802;-1.632;2023-02-03T01:12:18;101304.72;;;7.45;100.00
48888;BME280;42598;53.802;-1.632;2023-02-03T01:14:46;101317.26;;;6.87;100.00
48888;BME280;42598;53.802;-1.632;2023-02-03T01:17:13;101325.37;;;7.48;100.00
48888;BME280;42598;53.802;-1.632;2023-02-03T01:19:40;101322.63;;;7.06;100.00
48888;BME280;42598;53.802;-1.632;2023-02-03T01:22:08;101345.23;;;7.27;100.00
48888;BME280;42598;53.802;-1.632;2023-02-03T01:24:34;101324.82;;;7.57;100.00
48888;BME280;42598;53.802;-1.632;2023-02-03T01:27:01;101322.41;;;7.60;100.00
48888;BME280;42598;53.802;-1.632;2023-02-03T01:29:29;101312.28;;;7.48;100.00
48888;BME280;42598;53.802;-1.632;2023-02-03T01:31:56;101319.11;;;7.08;100.00
48888;BME280;42598;53.802;-1.632;2023-02-03T01:34:22;101316.28;;;6.65;100.00
48888;BME280;42598;53.802;-1.632;2023-02-03T01:36:49;101318.46;;;7.78;100.00
48888;BME280;42598;53.802;-1.632;2023-02-03T01:39:17;101325.32;;;7.00;100.00
48888;BME280;42598;53.802;-1.632;2023-02-03T01:41:44;101314.84;;;7.61;100.00
48888;BME280;42598;53.802;-1.632;2023-02-03T01:44:47;101316.55;;;7.37;100.00
48888;BME280;42598;53.802;-1.632;2023-02-03T01:47:25;101312.88;;;7.21;100.00
48888;BME280;42598;53.802;-1.632;2023-02-03T01:50:02;101315.44;;;6.95;100.00
48888;BME280;42598;53.802;-1.632;2023-02-03T01:52:32;101313.91;;;6.85;100.00
48888;BME280;42598;53.802;-1.632;2023-02-03T01:55:02;101323.03;;;6.89;100.00
48888;BME280;42598;53.802;-1.632;2023-02-03T01:57:34;101322.35;;;6.94;100.00
48888;BME280;42598;53.802;-1.632;2023-02-03T02:00:05;101322.09;;;6.79;100.00
48888;BME280;42598;53.802;-1.632;2023-02-03T02:02:33;101327.15;;;6.95;100.00
48888;BME280;42598;53.802;-1.632;2023-02-03T02:05:05;101327.30;;;6.82;100.00
48888;BME280;42598;53.802;-1.632;2023-02-03T02:07:35;101327.85;;;7.08;100.00
48888;BME280;42598;53.802;-1.632;2023-02-03T02:10:04;101330.31;;;7.69;100.00
48888;BME280;42598;53.802;-1.632;2023-02-03T02:12:31;101340.34;;;7.05;100.00
48888;BME280;42598;53.802;-1.632;2023-02-03T02:14:58;101342.96;;;7.25;100.00
48888;BME280;42598;53.802;-1.632;2023-02-03T02:17:46;101340.42;;;6.80;100.00
48888;BME280;42598;53.802;-1.632;2023-02-03T02:20:32;101354.83;;;6.40;100.00
48888;BME280;42598;53.802;-1.632;2023-02-03T02:23:19;101346.37;;;7.09;100.00
48888;BME280;42598;53.802;-1.632;2023-02-03T02:27:08;101347.27;;;7.03;100.00
48888;BME280;42598;53.802;-1.632;2023-02-03T02:31:05;101351.06;;;7.55;100.00
48888;BME280;42598;53.802;-1.632;2023-02-03T02:33:41;101349.44;;;7.30;100.00
48888;BME280;42598;53.802;-1.632;2023-02-03T02:36:21;101347.37;;;7.15;100.00
48888;BME280;42598;53.802;-1.632;2023-02-03T02:38:56;101337.45;;;7.18;100.00
48888;BME280;42598;53.802;-1.632;2023-02-03T02:41:30;101336.82;;;7.48;100.00
48888;BME280;42598;53.802;-1.632;2023-02-03T02:44:06;101334.37;;;7.27;100.00
48888;BME280;42598;53.802;-1.632;2023-02-03T02:46:39;101342.20;;;6.70;100.00
48888;BME280;42598;53.802;-1.632;2023-02-03T02:49:13;101344.09;;;7.09;100.00
48888;BME280;42598;53.802;-1.632;2023-02-03T02:51:43;101344.22;;;6.34;100.00
48888;BME280;42598;53.802;-1.632;2023-02-03T02:54:15;101349.93;;;6.96;100.00
48888;BME280;42598;53.802;-1.632;2023-02-03T02:56:48;101348.53;;;6.87;100.00
48888;BME280;42598;53.802;-1.632;2023-02-03T02:59:18;101340.35;;;6.72;100.00
48888;BME280;42598;53.802;-1.632;2023-02-03T03:01:45;101339.98;;;6.30;100.00
48888;BME280;42598;53.802;-1.632;2023-02-03T03:04:13;101341.47;;;6.45;100.00
48888;BME280;42598;53.802;-1.632;2023-02-03T03:06:44;101341.86;;;6.91;100.00
48888;BME280;42598;53.802;-1.632;2023-02-03T03:09:17;101335.66;;;7.16;100.00
48888;BME280;42598;53.802;-1.632;2023-02-03T03:11:48;101341.29;;;6.60;100.00
48888;BME280;42598;53.802;-1.632;2023-02-03T03:14:18;101338.47;;;6.57;100.00
48888;BME280;42598;53.802;-1.632;2023-02-03T03:16:50;101334.92;;;6.56;100.00
48888;BME280;42598;53.802;-1.632;2023-02-03T03:19:23;101341.01;;;6.79;100.00
48888;BME280;42598;53.802;-1.632;2023-02-03T03:21:53;101334.70;;;6.68;100.00
48888;BME280;42598;53.802;-1.632;2023-02-03T03:24:26;101335.84;;;6.58;100.00
48888;BME280;42598;53.802;-1.632;2023-02-03T03:26:58;101333.40;;;6.41;100.00
48888;BME280;42598;53.802;-1.632;2023-02-03T03:29:31;101342.01;;;6.43;100.00
48888;BME280;42598;53.802;-1.632;2023-02-03T03:32:00;101338.50;;;6.89;100.00
48888;BME280;42598;53.802;-1.632;2023-02-03T03:34:32;101344.33;;;6.44;100.00
48888;BME280;42598;53.802;-1.632;2023-02-03T03:37:04;101342.02;;;6.04;100.00
48888;BME280;42598;53.802;-1.632;2023-02-03T03:39:39;101358.81;;;6.37;100.00
48888;BME280;42598;53.802;-1.632;2023-02-03T03:42:15;101352.90;;;6.94;100.00
48888;BME280;42598;53.802;-1.632;2023-02-03T03:44:50;101364.32;;;6.99;100.00
48888;BME280;42598;53.802;-1.632;2023-02-03T03:47:27;101361.78;;;6.55;100.00
48888;BME280;42598;53.802;-1.632;2023-02-03T03:49:57;101372.19;;;6.85;100.00
48888;BME280;42598;53.802;-1.632;2023-02-03T03:52:30;101389.57;;;6.57;100.00
48888;BME280;42598;53.802;-1.632;2023-02-03T03:54:59;101392.33;;;6.21;100.00
48888;BME280;42598;53.802;-1.632;2023-02-03T03:57:31;101391.13;;;6.64;100.00
48888;BME280;42598;53.802;-1.632;2023-02-03T04:00:03;101401.87;;;6.81;100.00
48888;BME280;42598;53.802;-1.632;2023-02-03T04:02:32;101404.08;;;6.94;100.00
48888;BME280;42598;53.802;-1.632;2023-02-03T04:05:02;101409.78;;;6.71;100.00
48888;BME280;42598;53.802;-1.632;2023-02-03T04:07:38;101421.67;;;6.31;100.00
48888;BME280;42598;53.802;-1.632;2023-02-03T04:10:15;101426.41;;;6.49;100.00
48888;BME280;42598;53.802;-1.632;2023-02-03T04:12:43;101427.09;;;6.97;100.00
48888;BME280;42598;53.802;-1.632;2023-02-03T04:15:10;101441.19;;;6.45;100.00
48888;BME280;42598;53.802;-1.632;2023-02-03T04:17:37;101440.21;;;6.94;100.00
48888;BME280;42598;53.802;-1.632;2023-02-03T04:20:06;101444.34;;;6.64;100.00
48888;BME280;42598;53.802;-1.632;2023-02-03T04:22:33;101444.04;;;6.51;100.00
48888;BME280;42598;53.802;-1.632;2023-02-03T04:25:00;101441.47;;;7.03;100.00
48888;BME280;42598;53.802;-1.632;2023-02-03T04:27:27;101445.03;;;6.64;100.00
48888;BME280;42598;53.802;-1.632;2023-02-03T04:29:54;101446.86;;;6.67;100.00
48888;BME280;42598;53.802;-1.632;2023-02-03T04:32:22;101440.67;;;6.51;100.00
48888;BME280;42598;53.802;-1.632;2023-02-03T04:34:49;101453.80;;;6.54;100.00
48888;BME280;42598;53.802;-1.632;2023-02-03T04:37:15;101461.95;;;6.42;100.00
48888;BME280;42598;53.802;-1.632;2023-02-03T04:39:42;101463.31;;;6.82;100.00
48888;BME280;42598;53.802;-1.632;2023-02-03T04:42:09;101474.15;;;6.60;100.00
48888;BME280;42598;53.802;-1.632;2023-02-03T04:44:36;101471.64;;;6.52;100.00
48888;BME280;42598;53.802;-1.632;2023-02-03T04:47:03;101476.81;;;6.73;100.00
48888;BME280;42598;53.802;-1.632;2023-02-03T04:49:31;101465.08;;;6.56;100.00
48888;BME280;42598;53.802;-1.632;2023-02-03T04:51:58;101468.93;;;6.21;100.00
48888;BME280;42598;53.802;-1.632;2023-02-03T04:54:24;101475.70;;;6.14;100.00
48888;BME280;42598;53.802;-1.632;2023-02-03T04:56:51;101467.91;;;6.27;100.00
48888;BME280;42598;53.802;-1.632;2023-02-03T04:59:18;101477.51;;;6.05;100.00
48888;BME280;42598;53.802;-1.632;2023-02-03T05:01:46;101474.57;;;6.12;100.00
48888;BME280;42598;53.802;-1.632;2023-02-03T05:04:12;101485.77;;;6.19;100.00
48888;BME280;42598;53.802;-1.632;2023-02-03T05:06:39;101494.05;;;6.04;100.00
48888;BME280;42598;53.802;-1.632;2023-02-03T05:09:06;101492.00;;;6.59;100.00
48888;BME280;42598;53.802;-1.632;2023-02-03T05:11:33;101510.05;;;6.12;100.00
48888;BME280;42598;53.802;-1.632;2023-02-03T05:14:00;101499.84;;;6.67;100.00
48888;BME280;42598;53.802;-1.632;2023-02-03T05:16:27;101504.38;;;6.66;100.00
48888;BME280;42598;53.802;-1.632;2023-02-03T05:18:54;101507.80;;;6.96;100.00
48888;BME280;42598;53.802;-1.632;2023-02-03T05:21:21;101506.47;;;6.82;100.00
48888;BME280;42598;53.802;-1.632;2023-02-03T05:23:48;101517.00;;;6.36;100.00
48888;BME280;42598;53.802;-1.632;2023-02-03T05:26:18;101514.60;;;6.11;100.00
48888;BME280;42598;53.802;-1.632;2023-02-03T05:28:58;101524.56;;;6.35;100.00
48888;BME280;42598;53.802;-1.632;2023-02-03T05:31:26;101526.32;;;6.32;100.00
48888;BME280;42598;53.802;-1.632;2023-02-03T05:33:57;101528.03;;;6.65;100.00
48888;BME280;42598;53.802;-1.632;2023-02-03T05:36:35;101534.82;;;6.40;100.00
48888;BME280;42598;53.802;-1.632;2023-02-03T05:39:05;101533.16;;;6.74;100.00
48888;BME280;42598;53.802;-1.632;2023-02-03T05:41:41;101545.10;;;7.01;100.00
48888;BME280;42598;53.802;-1.632;2023-02-03T05:44:10;101540.75;;;7.25;100.00
48888;BME280;42598;53.802;-1.632;2023-02-03T05:46:45;101538.63;;;6.39;100.00
48888;BME280;42598;53.802;-1.632;2023-02-03T05:49:12;101534.85;;;7.26;100.00
48888;BME280;42598;53.802;-1.632;2023-02-03T05:51:40;101552.07;;;6.67;100.00
48888;BME280;42598;53.802;-1.632;2023-02-03T05:54:31;101546.26;;;7.27;100.00
48888;BME280;42598;53.802;-1.632;2023-02-03T05:57:04;101537.79;;;6.95;100.00
48888;BME280;42598;53.802;-1.632;2023-02-03T05:59:33;101536.30;;;6.46;100.00
48888;BME280;42598;53.802;-1.632;2023-02-03T06:02:00;101539.26;;;6.00;100.00
48888;BME280;42598;53.802;-1.632;2023-02-03T06:04:30;101546.59;;;5.93;100.00
48888;BME280;42598;53.802;-1.632;2023-02-03T06:07:00;101539.08;;;6.17;100.00
48888;BME280;42598;53.802;-1.632;2023-02-03T06:09:38;101533.21;;;6.41;100.00
48888;BME280;42598;53.802;-1.632;2023-02-03T06:12:10;101536.75;;;6.07;100.00
48888;BME280;42598;53.802;-1.632;2023-02-03T06:14:38;101532.26;;;6.31;100.00
48888;BME280;42598;53.802;-1.632;2023-02-03T06:17:06;101535.29;;;6.24;100.00
48888;BME280;42598;53.802;-1.632;2023-02-03T06:19:33;101537.59;;;6.29;100.00
48888;BME280;42598;53.802;-1.632;2023-02-03T06:21:59;101513.97;;;6.26;100.00
48888;BME280;42598;53.802;-1.632;2023-02-03T06:24:26;101522.75;;;6.54;100.00
48888;BME280;42598;53.802;-1.632;2023-02-03T06:26:53;101523.37;;;6.15;100.00
48888;BME280;42598;53.802;-1.632;2023-02-03T06:29:21;101515.51;;;6.53;100.00
48888;BME280;42598;53.802;-1.632;2023-02-03T06:31:48;101505.14;;;6.27;100.00
48888;BME280;42598;53.802;-1.632;2023-02-03T06:34:15;101508.35;;;6.01;100.00
48888;BME280;42598;53.802;-1.632;2023-02-03T06:36:42;101505.71;;;6.05;100.00
48888;BME280;42598;53.802;-1.632;2023-02-03T06:39:08;101500.88;;;6.01;100.00
48888;BME280;42598;53.802;-1.632;2023-02-03T06:41:35;101486.88;;;5.66;100.00
48888;BME280;42598;53.802;-1.632;2023-02-03T06:44:02;101490.34;;;5.74;100.00
48888;BME280;42598;53.802;-1.632;2023-02-03T06:46:30;101486.09;;;6.02;100.00
48888;BME280;42598;53.802;-1.632;2023-02-03T06:48:57;101481.02;;;5.74;100.00
48888;BME280;42598;53.802;-1.632;2023-02-03T06:51:25;101478.54;;;5.74;100.00
48888;BME280;42598;53.802;-1.632;2023-02-03T06:53:53;101495.49;;;6.10;100.00
48888;BME280;42598;53.802;-1.632;2023-02-03T06:56:28;101503.24;;;6.17;100.00
48888;BME280;42598;53.802;-1.632;2023-02-03T06:59:21;101500.97;;;6.06;100.00
48888;BME280;42598;53.802;-1.632;2023-02-03T07:01:49;101513.28;;;6.09;100.00
48888;BME280;42598;53.802;-1.632;2023-02-03T07:04:17;101515.59;;;6.07;100.00
48888;BME280;42598;53.802;-1.632;2023-02-03T07:06:44;101523.87;;;6.42;100.00
48888;BME280;42598;53.802;-1.632;2023-02-03T07:09:12;101534.37;;;6.19;100.00
48888;BME280;42598;53.802;-1.632;2023-02-03T07:11:39;101550.24;;;6.98;100.00
48888;BME280;42598;53.802;-1.632;2023-02-03T07:14:06;101566.76;;;7.00;100.00
48888;BME280;42598;53.802;-1.632;2023-02-03T07:16:32;101587.37;;;6.95;100.00
48888;BME280;42598;53.802;-1.632;2023-02-03T07:19:00;101599.37;;;7.61;100.00
48888;BME280;42598;53.802;-1.632;2023-02-03T07:21:28;101608.38;;;7.44;100.00
48888;BME280;42598;53.802;-1.632;2023-02-03T07:23:56;101625.34;;;7.80;100.00
48888;BME280;42598;53.802;-1.632;2023-02-03T07:26:23;101634.85;;;8.38;100.00
48888;BME280;42598;53.802;-1.632;2023-02-03T07:28:51;101645.51;;;7.55;100.00
48888;BME280;42598;53.802;-1.632;2023-02-03T07:31:18;101649.53;;;7.92;100.00
48888;BME280;42598;53.802;-1.632;2023-02-03T07:33:46;101644.51;;;8.10;100.00
48888;BME280;42598;53.802;-1.632;2023-02-03T07:36:14;101658.23;;;7.35;100.00
48888;BME280;42598;53.802;-1.632;2023-02-03T07:38:41;101660.12;;;8.29;100.00
48888;BME280;42598;53.802;-1.632;2023-02-03T07:41:19;101655.24;;;8.04;100.00
48888;BME280;42598;53.802;-1.632;2023-02-03T07:43:47;101668.10;;;7.90;100.00
48888;BME280;42598;53.802;-1.632;2023-02-03T07:46:20;101667.55;;;6.94;100.00
48888;BME280;42598;53.802;-1.632;2023-02-03T07:48:48;101673.15;;;7.30;100.00
48888;BME280;42598;53.802;-1.632;2023-02-03T07:51:15;101680.23;;;7.87;100.00
48888;BME280;42598;53.802;-1.632;2023-02-03T07:53:42;101692.57;;;7.40;100.00
48888;BME280;42598;53.802;-1.632;2023-02-03T07:56:09;101687.35;;;7.41;100.00
48888;BME280;42598;53.802;-1.632;2023-02-03T07:58:38;101704.71;;;7.35;100.00
48888;BME280;42598;53.802;-1.632;2023-02-03T08:01:10;101700.44;;;6.46;100.00
48888;BME280;42598;53.802;-1.632;2023-02-03T08:03:39;101701.99;;;7.22;100.00
48888;BME280;42598;53.802;-1.632;2023-02-03T08:06:10;101709.04;;;6.90;100.00
48888;BME280;42598;53.802;-1.632;2023-02-03T08:08:37;101713.45;;;7.64;100.00
48888;BME280;42598;53.802;-1.632;2023-02-03T08:11:04;101710.06;;;6.89;100.00
48888;BME280;42598;53.802;-1.632;2023-02-03T08:13:32;101714.71;;;7.03;100.00
48888;BME280;42598;53.802;-1.632;2023-02-03T08:16:00;101703.41;;;7.27;100.00
48888;BME280;42598;53.802;-1.632;2023-02-03T08:18:27;101712.71;;;7.38;100.00
48888;BME280;42598;53.802;-1.632;2023-02-03T08:20:55;101716.13;;;6.62;100.00
48888;BME280;42598;53.802;-1.632;2023-02-03T08:23:22;101715.01;;;6.61;100.00
48888;BME280;42598;53.802;-1.632;2023-02-03T08:25:51;101709.13;;;6.77;100.00
48888;BME280;42598;53.802;-1.632;2023-02-03T08:28:18;101726.39;;;7.18;100.00
48888;BME280;42598;53.802;-1.632;2023-02-03T08:30:46;101728.72;;;7.45;100.00
48888;BME280;42598;53.802;-1.632;2023-02-03T08:33:13;101732.92;;;7.00;100.00
48888;BME280;42598;53.802;-1.632;2023-02-03T08:35:40;101732.81;;;7.09;100.00
48888;BME280;42598;53.802;-1.632;2023-02-03T08:38:10;101741.83;;;7.18;100.00
48888;BME280;42598;53.802;-1.632;2023-02-03T08:40:37;101746.72;;;6.66;100.00
48888;BME280;42598;53.802;-1.632;2023-02-03T08:43:04;101752.35;;;7.29;100.00
48888;BME280;42598;53.802;-1.632;2023-02-03T08:45:32;101765.01;;;6.74;100.00
48888;BME280;42598;53.802;-1.632;2023-02-03T08:47:59;101757.58;;;7.04;100.00
48888;BME280;42598;53.802;-1.632;2023-02-03T08:50:26;101786.57;;;7.14;100.00
48888;BME280;42598;53.802;-1.632;2023-02-03T08:52:54;101781.07;;;7.61;100.00
48888;BME280;42598;53.802;-1.632;2023-02-03T08:55:22;101786.74;;;7.40;100.00
48888;BME280;42598;53.802;-1.632;2023-02-03T08:57:49;101802.27;;;7.45;100.00
48888;BME280;42598;53.802;-1.632;2023-02-03T09:00:17;101799.83;;;7.50;100.00
48888;BME280;42598;53.802;-1.632;2023-02-03T09:02:44;101814.08;;;7.37;100.00
48888;BME280;42598;53.802;-1.632;2023-02-03T09:05:10;101817.71;;;7.37;100.00
48888;BME280;42598;53.802;-1.632;2023-02-03T09:07:37;101816.60;;;7.53;100.00
48888;BME280;42598;53.802;-1.632;2023-02-03T09:10:05;101828.34;;;7.18;100.00
48888;BME280;42598;53.802;-1.632;2023-02-03T09:12:32;101828.79;;;7.84;100.00
48888;BME280;42598;53.802;-1.632;2023-02-03T09:14:59;101828.87;;;7.74;100.00
48888;BME280;42598;53.802;-1.632;2023-02-03T09:17:26;101823.52;;;7.76;100.00
48888;BME280;42598;53.802;-1.632;2023-02-03T09:19:54;101835.03;;;7.96;100.00
48888;BME280;42598;53.802;-1.632;2023-02-03T09:22:21;101833.41;;;8.03;100.00
48888;BME280;42598;53.802;-1.632;2023-02-03T09:24:49;101845.86;;;7.47;100.00
48888;BME280;42598;53.802;-1.632;2023-02-03T09:27:16;101855.64;;;7.63;100.00
48888;BME280;42598;53.802;-1.632;2023-02-03T09:29:43;101854.27;;;7.78;100.00
48888;BME280;42598;53.802;-1.632;2023-02-03T09:32:10;101856.25;;;7.74;100.00
48888;BME280;42598;53.802;-1.632;2023-02-03T09:34:37;101860.36;;;8.01;100.00
48888;BME280;42598;53.802;-1.632;2023-02-03T09:37:04;101867.09;;;7.77;100.00
48888;BME280;42598;53.802;-1.632;2023-02-03T09:39:31;101868.64;;;8.10;100.00
48888;BME280;42598;53.802;-1.632;2023-02-03T09:44:29;101868.16;;;7.96;100.00
48888;BME280;42598;53.802;-1.632;2023-02-03T09:47:03;101866.17;;;7.36;100.00
48888;BME280;42598;53.802;-1.632;2023-02-03T09:49:38;101862.01;;;7.71;100.00
48888;BME280;42598;53.802;-1.632;2023-02-03T09:52:12;101865.92;;;8.25;100.00
48888;BME280;42598;53.802;-1.632;2023-02-03T09:54:45;101871.25;;;7.34;100.00
48888;BME280;42598;53.802;-1.632;2023-02-03T09:57:19;101878.01;;;8.19;100.00
48888;BME280;42598;53.802;-1.632;2023-02-03T09:59:47;101873.73;;;8.21;100.00
48888;BME280;42598;53.802;-1.632;2023-02-03T10:02:25;101878.20;;;8.17;100.00
48888;BME280;42598;53.802;-1.632;2023-02-03T10:05:03;101888.37;;;7.83;100.00
48888;BME280;42598;53.802;-1.632;2023-02-03T10:07:38;101900.25;;;7.76;100.00
48888;BME280;42598;53.802;-1.632;2023-02-03T10:10:18;101912.18;;;8.01;100.00
48888;BME280;42598;53.802;-1.632;2023-02-03T10:12:57;101916.01;;;7.76;100.00
48888;BME280;42598;53.802;-1.632;2023-02-03T10:15:43;101925.78;;;8.18;100.00
48888;BME280;42598;53.802;-1.632;2023-02-03T10:18:17;101931.55;;;7.78;100.00
48888;BME280;42598;53.802;-1.632;2023-02-03T10:20:48;101933.35;;;7.75;100.00
48888;BME280;42598;53.802;-1.632;2023-02-03T10:23:21;101927.36;;;8.22;100.00
48888;BME280;42598;53.802;-1.632;2023-02-03T10:25:52;101937.46;;;7.99;100.00
48888;BME280;42598;53.802;-1.632;2023-02-03T10:28:22;101936.91;;;7.59;100.00
48888;BME280;42598;53.802;-1.632;2023-02-03T10:30:54;101940.80;;;8.01;100.00
48888;BME280;42598;53.802;-1.632;2023-02-03T10:33:24;101940.18;;;8.29;100.00
48888;BME280;42598;53.802;-1.632;2023-02-03T10:36:00;101949.04;;;7.79;100.00
48888;BME280;42598;53.802;-1.632;2023-02-03T10:38:51;101956.02;;;7.27;100.00
48888;BME280;42598;53.802;-1.632;2023-02-03T10:41:23;101954.79;;;7.59;100.00
48888;BME280;42598;53.802;-1.632;2023-02-03T10:43:51;101952.99;;;7.14;100.00
48888;BME280;42598;53.802;-1.632;2023-02-03T10:46:25;101961.37;;;7.05;100.00
48888;BME280;42598;53.802;-1.632;2023-02-03T10:48:54;101945.46;;;7.61;100.00
48888;BME280;42598;53.802;-1.632;2023-02-03T10:51:23;101945.92;;;7.86;100.00
48888;BME280;42598;53.802;-1.632;2023-02-03T10:53:51;101945.89;;;7.23;100.00
48888;BME280;42598;53.802;-1.632;2023-02-03T10:56:22;101941.73;;;7.14;100.00
48888;BME280;42598;53.802;-1.632;2023-02-03T10:58:53;101949.51;;;7.22;100.00
48888;BME280;42598;53.802;-1.632;2023-02-03T11:01:24;101947.20;;;7.01;100.00
48888;BME280;42598;53.802;-1.632;2023-02-03T11:04:00;101952.86;;;7.05;100.00
48888;BME280;42598;53.802;-1.632;2023-02-03T11:06:28;101955.01;;;7.44;100.00
48888;BME280;42598;53.802;-1.632;2023-02-03T11:08:56;101948.32;;;7.34;100.00
48888;BME280;42598;53.802;-1.632;2023-02-03T11:11:27;101956.70;;;7.15;100.00
48888;BME280;42598;53.802;-1.632;2023-02-03T11:14:10;101954.91;;;7.56;100.00
48888;BME280;42598;53.802;-1.632;2023-02-03T11:16:38;101958.63;;;7.89;100.00
48888;BME280;42598;53.802;-1.632;2023-02-03T11:19:10;101958.96;;;7.33;100.00
48888;BME280;42598;53.802;-1.632;2023-02-03T11:21:45;101964.68;;;7.91;100.00
48888;BME280;42598;53.802;-1.632;2023-02-03T11:24:18;101953.49;;;8.34;100.00
48888;BME280;42598;53.802;-1.632;2023-02-03T11:26:55;101956.91;;;7.45;100.00
48888;BME280;42598;53.802;-1.632;2023-02-03T11:29:25;101948.08;;;7.30;100.00
48888;BME280;42598;53.802;-1.632;2023-02-03T11:31:56;101944.80;;;7.60;100.00
48888;BME280;42598;53.802;-1.632;2023-02-03T11:34:27;101947.96;;;8.05;100.00
48888;BME280;42598;53.802;-1.632;2023-02-03T11:36:55;101944.27;;;7.98;100.00
48888;BME280;42598;53.802;-1.632;2023-02-03T11:39:26;101939.93;;;7.77;100.00
48888;BME280;42598;53.802;-1.632;2023-02-03T11:41:55;101926.81;;;7.97;100.00
48888;BME280;42598;53.802;-1.632;2023-02-03T11:44:29;101933.03;;;7.69;100.00
48888;BME280;42598;53.802;-1.632;2023-02-03T11:46:59;101944.40;;;7.53;100.00
48888;BME280;42598;53.802;-1.632;2023-02-03T11:50:14;101932.09;;;7.80;100.00
48888;BME280;42598;53.802;-1.632;2023-02-03T11:53:02;101942.09;;;7.84;100.00
48888;BME280;42598;53.802;-1.632;2023-02-03T11:55:44;101950.45;;;7.55;100.00
48888;BME280;42598;53.802;-1.632;2023-02-03T11:59:37;101948.10;;;8.17;100.00
48888;BME280;42598;53.802;-1.632;2023-02-03T12:02:29;101954.39;;;7.99;100.00
48888;BME280;42598;53.802;-1.632;2023-02-03T12:05:22;101958.51;;;8.17;100.00
48888;BME280;42598;53.802;-1.632;2023-02-03T12:08:17;101973.41;;;8.47;100.00
48888;BME280;42598;53.802;-1.632;2023-02-03T12:11:09;101965.13;;;8.51;100.00
48888;BME280;42598;53.802;-1.632;2023-02-03T12:14:07;101970.12;;;9.51;100.00
48888;BME280;42598;53.802;-1.632;2023-02-03T12:17:08;101970.67;;;8.34;100.00
48888;BME280;42598;53.802;-1.632;2023-02-03T12:19:52;101976.87;;;9.69;100.00
48888;BME280;42598;53.802;-1.632;2023-02-03T12:22:28;101976.09;;;9.84;100.00
48888;BME280;42598;53.802;-1.632;2023-02-03T12:25:05;101976.22;;;9.44;100.00
48888;BME280;42598;53.802;-1.632;2023-02-03T12:27:58;101983.34;;;9.56;100.00
48888;BME280;42598;53.802;-1.632;2023-02-03T12:30:34;101978.47;;;9.88;100.00
48888;BME280;42598;53.802;-1.632;2023-02-03T12:33:09;101984.51;;;9.68;100.00
48888;BME280;42598;53.802;-1.632;2023-02-03T12:35:45;101980.58;;;9.77;100.00
48888;BME280;42598;53.802;-1.632;2023-02-03T12:38:20;101980.24;;;10.01;100.00
48888;BME280;42598;53.802;-1.632;2023-02-03T12:40:56;101968.72;;;10.98;100.00
48888;BME280;42598;53.802;-1.632;2023-02-03T12:43:29;101971.62;;;9.87;100.00
48888;BME280;42598;53.802;-1.632;2023-02-03T12:46:08;101978.63;;;9.84;100.00
48888;BME280;42598;53.802;-1.632;2023-02-03T12:48:46;101975.02;;;9.64;100.00
48888;BME280;42598;53.802;-1.632;2023-02-03T12:51:22;101973.13;;;10.92;100.00
48888;BME280;42598;53.802;-1.632;2023-02-03T12:53:55;101978.84;;;10.02;100.00
48888;BME280;42598;53.802;-1.632;2023-02-03T12:56:28;101979.88;;;9.58;100.00
48888;BME280;42598;53.802;-1.632;2023-02-03T12:58:58;101988.49;;;9.18;100.00
48888;BME280;42598;53.802;-1.632;2023-02-03T13:01:33;101988.88;;;9.47;100.00
48888;BME280;42598;53.802;-1.632;2023-02-03T13:04:08;101995.94;;;9.84;100.00
48888;BME280;42598;53.802;-1.632;2023-02-03T13:06:42;101991.72;;;9.52;100.00